createdAt,value
2023-04-08T00:00:51.847Z,37.02
2023-04-08T00:06:13.803Z,36.72
2023-04-08T00:11:36.223Z,36.87
2023-04-08T00:16:58.305Z,36.65
2023-04-08T00:22:20.449Z,36.59
2023-04-08T00:27:42.299Z,36.61
2023-04-08T00:33:04.768Z,36.65
2023-04-08T00:38:26.998Z,37.09
2023-04-08T00:43:48.938Z,36.78
2023-04-08T00:49:10.901Z,36.68
2023-04-08T00:54:32.759Z,36.84
2023-04-08T00:59:54.804Z,36.92
2023-04-08T01:05:29.081Z,36.71
2023-04-08T01:10:58.953Z,36.80
2023-04-08T01:16:22.922Z,36.89
2023-04-08T01:21:45.677Z,36.71
2023-04-08T01:27:08.728Z,37.12
2023-04-08T01:32:33.062Z,36.91
2023-04-08T01:37:55.977Z,36.70
2023-04-08T01:43:19.285Z,36.78
2023-04-08T01:48:41.833Z,37.05
2023-04-08T01:54:03.859Z,37.08
2023-04-08T01:59:32.011Z,37.20
2023-04-08T02:04:54.952Z,37.15
2023-04-08T02:10:17.648Z,37.14
2023-04-08T02:15:45.361Z,36.88
2023-04-08T02:21:13.943Z,37.00
2023-04-08T02:26:38.666Z,36.93
2023-04-08T02:32:02.549Z,37.09
2023-04-08T02:37:24.517Z,37.22
2023-04-08T02:42:46.546Z,36.81
2023-04-08T02:48:08.442Z,36.99
2023-04-08T02:53:30.335Z,36.72
2023-04-08T02:58:52.462Z,36.79
2023-04-08T03:04:14.489Z,37.33
2023-04-08T03:09:36.332Z,36.84
2023-04-08T03:14:58.333Z,37.25
2023-04-08T03:20:20.514Z,37.16
2023-04-08T03:25:42.449Z,36.86
2023-04-08T03:31:05.292Z,36.94
2023-04-08T03:36:27.145Z,36.84
2023-04-08T03:41:48.985Z,37.02
2023-04-08T03:47:10.954Z,37.19
2023-04-08T03:52:32.871Z,37.34
2023-04-08T03:57:54.747Z,37.29
2023-04-08T04:03:16.970Z,37.15
2023-04-08T04:08:39.017Z,37.17
2023-04-08T04:14:00.859Z,37.01
2023-04-08T04:19:22.738Z,37.00
2023-04-08T04:24:48.932Z,36.89
2023-04-08T04:30:15.808Z,37.13
2023-04-08T04:35:39.534Z,36.98
2023-04-08T04:41:01.960Z,36.98
2023-04-08T04:46:23.877Z,36.84
2023-04-08T04:51:45.858Z,36.90
2023-04-08T04:57:07.810Z,37.29
2023-04-08T05:02:29.807Z,37.07
2023-04-08T05:07:52.037Z,37.27
2023-04-08T05:13:14.184Z,37.25
2023-04-08T05:18:36.360Z,36.87
2023-04-08T05:23:58.279Z,37.30
2023-04-08T05:29:22.067Z,36.97
2023-04-08T05:34:44.504Z,37.23
2023-04-08T05:40:07.165Z,37.15
2023-04-08T05:45:29.769Z,36.88
2023-04-08T05:50:51.660Z,36.21
2023-04-08T05:56:13.539Z,36.35
2023-04-08T06:01:35.814Z,36.11
2023-04-08T06:07:00.074Z,36.44
2023-04-08T06:12:22.045Z,36.11
2023-04-08T06:17:44.026Z,36.44
2023-04-08T06:23:06.232Z,36.58
2023-04-08T06:28:30.437Z,36.50
2023-04-08T06:33:52.804Z,36.62
2023-04-08T06:39:15.670Z,36.99
2023-04-08T06:44:37.500Z,37.24
2023-04-08T06:49:59.858Z,37.01
2023-04-08T06:55:21.728Z,37.29
2023-04-08T07:00:44.005Z,37.13
2023-04-08T07:06:06.086Z,37.50
2023-04-08T07:11:28.206Z,37.66
2023-04-08T07:16:50.249Z,37.68
2023-04-08T07:22:12.225Z,37.20
2023-04-08T07:27:34.736Z,37.28
2023-04-08T07:33:00.474Z,36.92
2023-04-08T07:38:22.744Z,37.17
2023-04-08T07:43:44.620Z,37.15
2023-04-08T07:49:07.060Z,36.62
2023-04-08T07:54:29.028Z,36.18
2023-04-08T07:59:51.076Z,36.08
2023-04-08T08:05:12.966Z,35.76
2023-04-08T08:10:34.877Z,35.53
2023-04-08T08:15:57.500Z,35.48
2023-04-08T08:21:19.354Z,35.23
2023-04-08T08:26:41.158Z,35.34
2023-04-08T08:32:04.008Z,35.52
2023-04-08T08:37:26.031Z,35.47
2023-04-08T08:42:55.276Z,35.37
2023-04-08T08:48:17.936Z,35.37
2023-04-08T08:53:40.530Z,35.83
2023-04-08T08:59:02.609Z,35.60
2023-04-08T09:04:24.757Z,35.57
2023-04-08T09:09:51.447Z,35.46
2023-04-08T09:15:13.297Z,35.63
2023-04-08T09:20:35.145Z,35.68
2023-04-08T09:26:07.672Z,35.78
2023-04-08T09:31:32.041Z,35.76
2023-04-08T09:36:54.827Z,35.77
2023-04-08T09:42:19.920Z,35.77
2023-04-08T09:48:02.216Z,36.00
2023-04-08T09:53:34.723Z,35.49
2023-04-08T09:59:03.991Z,35.55
2023-04-08T10:04:29.549Z,35.39
2023-04-08T10:09:52.057Z,35.71
2023-04-08T10:15:26.780Z,35.54
2023-04-08T10:20:49.490Z,35.60
2023-04-08T10:26:32.129Z,35.84
2023-04-08T10:31:54.154Z,36.08
2023-04-08T10:37:16.074Z,35.87
2023-04-08T10:42:38.890Z,35.87
2023-04-08T10:48:19.016Z,36.19
2023-04-08T10:53:40.909Z,35.91
2023-04-08T10:59:03.873Z,36.09
2023-04-08T11:04:26.126Z,36.07
2023-04-08T11:09:49.823Z,35.65
2023-04-08T11:15:13.970Z,35.73
2023-04-08T11:20:37.395Z,35.23
2023-04-08T11:25:59.435Z,34.64
2023-04-08T11:31:24.692Z,34.54
2023-04-08T11:36:46.796Z,34.87
2023-04-08T11:42:08.886Z,34.82
2023-04-08T11:47:34.732Z,34.75
2023-04-08T11:52:57.329Z,34.65
2023-04-08T11:58:19.277Z,34.63
2023-04-08T12:03:55.215Z,35.04
2023-04-08T12:09:18.214Z,35.14
2023-04-08T12:14:40.373Z,35.04
2023-04-08T12:20:02.501Z,35.29
2023-04-08T12:25:24.404Z,35.36
2023-04-08T12:30:47.200Z,35.26
2023-04-08T12:36:09.647Z,35.36
2023-04-08T12:41:32.895Z,35.41
2023-04-08T12:46:55.314Z,35.29
2023-04-08T12:52:17.713Z,35.73
2023-04-08T12:57:39.660Z,35.20
2023-04-08T13:03:01.637Z,35.04
2023-04-08T13:08:23.547Z,35.36
2023-04-08T13:13:46.746Z,35.09
2023-04-08T13:19:09.007Z,35.05
2023-04-08T13:24:30.909Z,35.16
2023-04-08T13:29:52.831Z,35.83
2023-04-08T13:35:14.856Z,35.80
2023-04-08T13:40:36.800Z,35.54
2023-04-08T13:45:58.876Z,35.46
2023-04-08T13:51:20.842Z,35.43
2023-04-08T13:56:42.783Z,35.40
2023-04-08T14:02:04.829Z,35.67
2023-04-08T14:07:26.734Z,36.00
2023-04-08T14:12:48.730Z,35.74
2023-04-08T14:18:10.914Z,35.69
2023-04-08T14:23:32.800Z,36.05
2023-04-08T14:28:54.766Z,36.10
2023-04-08T14:34:16.819Z,35.23
2023-04-08T14:39:38.745Z,33.51
2023-04-08T14:45:01.285Z,32.82
2023-04-08T14:50:23.275Z,31.91
2023-04-08T14:55:45.172Z,31.53
2023-04-08T15:01:07.203Z,31.45
2023-04-08T15:06:29.165Z,31.20
2023-04-08T15:11:50.983Z,29.85
2023-04-08T15:17:12.826Z,29.17
2023-04-08T15:22:34.849Z,28.79
2023-04-08T15:27:56.744Z,28.42
2023-04-08T15:33:19.513Z,28.30
2023-04-08T15:38:41.730Z,27.90
2023-04-08T15:44:03.566Z,27.97
2023-04-08T15:49:25.713Z,27.63
2023-04-08T15:54:47.629Z,27.40
2023-04-08T16:00:11.012Z,27.12
2023-04-08T16:05:36.162Z,27.65
2023-04-08T16:11:02.924Z,28.36
2023-04-08T16:16:24.802Z,28.55
2023-04-08T16:21:46.662Z,29.36
2023-04-08T16:27:08.543Z,29.59
2023-04-08T16:32:30.941Z,29.49
2023-04-08T16:37:52.901Z,30.08
2023-04-08T16:43:15.717Z,30.06
2023-04-08T16:48:39.644Z,30.06
2023-04-08T16:54:01.523Z,30.24
2023-04-08T16:59:23.669Z,30.97
2023-04-08T17:04:50.165Z,30.91
2023-04-08T17:10:12.030Z,30.85
2023-04-08T17:15:36.732Z,31.32
2023-04-08T17:20:59.149Z,31.34
2023-04-08T17:26:22.553Z,31.39
2023-04-08T17:31:44.736Z,30.96
2023-04-08T17:37:06.739Z,31.08
2023-04-08T17:42:28.552Z,31.37
2023-04-08T17:47:50.770Z,31.42
2023-04-08T17:53:12.711Z,31.25
2023-04-08T17:58:34.561Z,30.74
2023-04-08T18:03:56.708Z,30.92
2023-04-08T18:09:18.888Z,30.83
2023-04-08T18:14:40.717Z,30.78
2023-04-08T18:20:02.647Z,30.54
2023-04-08T18:25:24.741Z,30.96
2023-04-08T18:30:51.468Z,31.14
2023-04-08T18:36:14.206Z,31.05
2023-04-08T18:41:37.583Z,31.44
2023-04-08T18:46:59.467Z,31.78
2023-04-08T18:52:21.399Z,31.85
2023-04-08T18:57:43.238Z,32.33
2023-04-08T19:03:06.330Z,32.54
2023-04-08T19:08:29.981Z,32.33
2023-04-08T19:13:52.009Z,32.49
2023-04-08T19:19:14.070Z,32.59
2023-04-08T19:24:37.178Z,32.92
2023-04-08T19:29:59.359Z,33.21
2023-04-08T19:35:21.217Z,33.24
2023-04-08T19:40:43.316Z,33.31
2023-04-08T19:46:05.202Z,33.90
2023-04-08T19:51:28.201Z,33.61
2023-04-08T19:56:50.358Z,34.03
2023-04-08T20:02:12.371Z,34.19
2023-04-08T20:07:34.282Z,34.36
2023-04-08T20:12:56.193Z,34.32
2023-04-08T20:18:18.356Z,34.23
2023-04-08T20:23:44.503Z,34.59
2023-04-08T20:29:06.933Z,34.68
2023-04-08T20:34:28.828Z,34.32
2023-04-08T20:39:50.643Z,34.51
2023-04-08T20:45:12.540Z,34.58
2023-04-08T20:50:34.880Z,34.68
2023-04-08T20:55:57.007Z,34.61
2023-04-08T21:01:19.000Z,34.39
2023-04-08T21:06:41.179Z,34.82
2023-04-08T21:12:03.524Z,34.83
2023-04-08T21:17:25.442Z,35.04
2023-04-08T21:22:47.380Z,34.98
2023-04-08T21:28:09.447Z,35.06
2023-04-08T21:33:31.277Z,34.93
2023-04-08T21:38:53.432Z,34.72
2023-04-08T21:44:15.898Z,34.90
2023-04-08T21:49:37.806Z,35.21
2023-04-08T21:54:59.729Z,35.27
2023-04-08T22:00:21.783Z,34.82
2023-04-08T22:05:43.646Z,35.06
2023-04-08T22:11:11.409Z,35.15
2023-04-08T22:16:33.274Z,35.06
2023-04-08T22:21:55.168Z,34.85
2023-04-08T22:27:17.171Z,34.86
2023-04-08T22:32:39.061Z,35.01
2023-04-08T22:38:01.154Z,34.98
2023-04-08T22:43:23.197Z,35.18
2023-04-08T22:48:45.351Z,35.19
2023-04-08T22:54:07.241Z,35.12
2023-04-08T22:59:29.305Z,35.24
2023-04-08T23:04:54.865Z,35.09
2023-04-08T23:10:16.614Z,35.03
2023-04-08T23:15:38.498Z,35.51
2023-04-08T23:21:00.400Z,35.35
2023-04-08T23:26:22.477Z,35.38
2023-04-08T23:31:44.649Z,35.53
2023-04-08T23:37:06.607Z,35.41
2023-04-08T23:42:28.728Z,35.45
2023-04-08T23:47:50.682Z,35.31
2023-04-08T23:53:12.530Z,35.53
2023-04-08T23:58:34.798Z,35.47
